createdAt,value
2019-01-24T00:01:00.605Z,31.40
2019-01-24T00:03:29.068Z,31.45
2019-01-24T00:05:57.541Z,30.60
2019-01-24T00:08:25.912Z,30.80
2019-01-24T00:10:54.475Z,31.90
2019-01-24T00:13:22.927Z,30.50
2019-01-24T00:15:51.317Z,30.92
2019-01-24T00:18:19.707Z,29.27
2019-01-24T00:20:48.139Z,29.77
2019-01-24T00:23:16.598Z,32.75
2019-01-24T00:25:45.394Z,28.30
2019-01-24T00:28:13.864Z,31.50
2019-01-24T00:30:42.237Z,32.63
2019-01-24T00:33:10.585Z,30.02
2019-01-24T00:35:39.060Z,33.33
2019-01-24T00:38:07.613Z,30.45
2019-01-24T00:40:36.095Z,31.52
2019-01-24T00:43:04.673Z,31.37
2019-01-24T00:45:33.154Z,32.93
2019-01-24T00:48:01.513Z,32.60
2019-01-24T00:50:29.877Z,28.52
2019-01-24T00:52:58.329Z,29.37
2019-01-24T00:55:26.768Z,33.88
2019-01-24T00:57:55.121Z,32.55
2019-01-24T01:00:27.839Z,29.60
2019-01-24T01:02:57.692Z,33.90
2019-01-24T01:05:26.312Z,34.30
2019-01-24T01:07:54.754Z,29.63
2019-01-24T01:10:23.199Z,30.25
2019-01-24T01:12:51.567Z,28.62
2019-01-24T01:15:20.422Z,29.57
2019-01-24T01:17:48.879Z,31.65
2019-01-24T01:20:19.944Z,31.27
2019-01-24T01:22:48.345Z,30.57
2019-01-24T01:25:16.831Z,30.55
2019-01-24T01:27:45.888Z,31.87
2019-01-24T01:30:22.848Z,33.80
2019-01-24T01:32:52.143Z,30.60
2019-01-24T01:35:20.776Z,32.60
2019-01-24T01:37:49.840Z,30.77
2019-01-24T01:40:19.071Z,33.55
2019-01-24T01:42:47.513Z,31.87
2019-01-24T01:45:19.142Z,34.23
2019-01-24T01:47:47.617Z,32.48
2019-01-24T01:50:19.076Z,32.88
2019-01-24T01:52:47.651Z,34.43
2019-01-24T01:55:16.135Z,34.73
2019-01-24T01:57:44.500Z,34.30
2019-01-24T02:00:24.409Z,36.60
2019-01-24T02:02:54.505Z,36.20
2019-01-24T02:05:23.159Z,34.58
2019-01-24T02:07:52.028Z,35.05
2019-01-24T02:10:22.294Z,33.90
2019-01-24T02:12:52.550Z,34.73
2019-01-24T02:15:21.054Z,33.70
2019-01-24T02:17:49.813Z,33.05
2019-01-24T02:20:22.286Z,31.95
2019-01-24T02:22:51.079Z,34.10
2019-01-24T02:25:19.588Z,33.85
2019-01-24T02:27:48.056Z,30.82
2019-01-24T02:30:20.741Z,33.05
2019-01-24T02:32:49.100Z,30.48
2019-01-24T02:35:17.495Z,34.58
2019-01-24T02:37:45.865Z,36.42
2019-01-24T02:40:14.412Z,33.30
2019-01-24T02:42:42.859Z,34.92
2019-01-24T02:45:14.260Z,31.93
2019-01-24T02:47:42.625Z,34.67
2019-01-24T02:50:13.952Z,32.45
2019-01-24T02:52:42.434Z,31.85
2019-01-24T02:55:12.997Z,33.45
2019-01-24T02:57:42.161Z,34.00
2019-01-24T03:00:17.673Z,31.20
2019-01-24T03:02:46.042Z,35.43
2019-01-24T03:05:17.080Z,32.38
2019-01-24T03:07:45.842Z,32.05
2019-01-24T03:10:14.511Z,31.97
2019-01-24T03:12:42.896Z,34.35
2019-01-24T03:15:14.435Z,31.93
2019-01-24T03:17:42.805Z,27.65
2019-01-24T03:20:11.709Z,34.00
2019-01-24T03:22:40.065Z,32.58
2019-01-24T03:25:08.989Z,30.25
2019-01-24T03:27:37.329Z,30.32
2019-01-24T03:30:14.151Z,30.43
2019-01-24T03:32:42.493Z,31.12
2019-01-24T03:35:18.067Z,31.40
2019-01-24T03:37:46.516Z,29.80
2019-01-24T03:40:15.419Z,35.48
2019-01-24T03:42:45.573Z,30.40
2019-01-24T03:45:15.282Z,26.85
2019-01-24T03:47:43.868Z,27.52
2019-01-24T03:50:18.131Z,27.85
2019-01-24T03:52:46.908Z,28.23
2019-01-24T03:55:17.484Z,29.60
2019-01-24T03:57:47.653Z,24.90
2019-01-24T04:00:28.015Z,27.02
2019-01-24T04:02:57.885Z,29.60
2019-01-24T04:05:26.355Z,26.42
2019-01-24T04:07:54.709Z,26.30
2019-01-24T04:10:23.108Z,25.27
2019-01-24T04:12:51.476Z,24.23
2019-01-24T04:15:24.970Z,26.35
2019-01-24T04:17:53.366Z,26.50
2019-01-24T04:20:21.828Z,24.15
2019-01-24T04:22:50.187Z,26.85
2019-01-24T04:25:18.792Z,26.97
2019-01-24T04:27:47.159Z,24.72
2019-01-24T04:30:18.745Z,26.45
2019-01-24T04:32:47.182Z,27.13
2019-01-24T04:35:20.088Z,26.25
2019-01-24T04:37:46.224Z,28.05
2019-01-24T04:40:16.110Z,28.45
2019-01-24T04:42:46.257Z,24.60
2019-01-24T04:45:15.482Z,22.62
2019-01-24T04:47:43.967Z,22.90
2019-01-24T04:50:14.588Z,22.60
2019-01-24T04:52:43.073Z,25.10
2019-01-24T04:55:16.181Z,24.92
2019-01-24T04:57:44.541Z,26.15
2019-01-24T05:00:32.557Z,25.62
2019-01-24T05:03:00.932Z,24.55
2019-01-24T05:05:29.436Z,26.80
2019-01-24T05:07:57.779Z,27.27
2019-01-24T05:10:26.149Z,22.95
2019-01-24T05:12:56.294Z,23.35
2019-01-24T05:15:24.907Z,25.92
2019-01-24T05:17:53.236Z,24.30
2019-01-24T05:20:21.610Z,23.95
2019-01-24T05:22:49.959Z,23.92
2019-01-24T05:25:18.498Z,23.87
2019-01-24T05:27:48.831Z,20.88
2019-01-24T05:30:24.155Z,23.00
2019-01-24T05:32:52.976Z,24.85
2019-01-24T05:35:22.360Z,22.62
2019-01-24T05:37:50.898Z,23.90
2019-01-24T05:40:19.555Z,24.85
2019-01-24T05:42:48.199Z,23.40
2019-01-24T05:45:18.596Z,25.50
2019-01-24T05:47:47.997Z,28.55
2019-01-24T05:50:16.710Z,26.00
2019-01-24T05:52:45.572Z,24.63
2019-01-24T05:55:14.413Z,22.87
2019-01-24T05:57:42.893Z,21.93
2019-01-24T06:00:26.555Z,19.00
2019-01-24T06:02:57.531Z,21.02
2019-01-24T06:05:26.077Z,21.55
2019-01-24T06:07:54.535Z,22.90
2019-01-24T06:10:22.897Z,23.73
2019-01-24T06:12:51.259Z,23.15
2019-01-24T06:15:19.732Z,21.60
2019-01-24T06:17:48.205Z,23.32
2019-01-24T06:20:17.949Z,20.32
2019-01-24T06:22:46.314Z,22.27
2019-01-24T06:25:14.809Z,20.82
2019-01-24T06:27:43.268Z,19.98
2019-01-24T06:30:15.826Z,20.52
2019-01-24T06:32:44.192Z,21.07
2019-01-24T06:35:13.004Z,20.57
2019-01-24T06:37:41.564Z,20.20
2019-01-24T06:40:11.435Z,19.70
2019-01-24T06:42:39.794Z,20.00
2019-01-24T06:45:12.605Z,21.00
2019-01-24T06:47:40.976Z,20.45
2019-01-24T06:50:11.319Z,19.77
2019-01-24T06:52:39.691Z,21.97
2019-01-24T06:55:12.154Z,20.80
2019-01-24T06:57:40.628Z,21.85
2019-01-24T07:00:15.625Z,21.42
2019-01-24T07:02:44.365Z,21.40
2019-01-24T07:05:14.201Z,19.98
2019-01-24T07:07:42.665Z,19.32
2019-01-24T07:10:14.412Z,20.85
2019-01-24T07:12:42.881Z,22.67
2019-01-24T07:15:15.280Z,20.55
2019-01-24T07:17:43.940Z,23.67
2019-01-24T07:20:12.755Z,21.97
2019-01-24T07:22:41.133Z,24.27
2019-01-24T07:25:16.761Z,23.92
2019-01-24T07:27:45.131Z,23.40
2019-01-24T07:30:14.866Z,25.35
2019-01-24T07:32:43.258Z,23.38
2019-01-24T07:35:13.880Z,24.82
2019-01-24T07:37:42.668Z,25.23
2019-01-24T07:40:13.400Z,24.43
2019-01-24T07:42:41.788Z,24.15
2019-01-24T07:45:14.437Z,27.22
2019-01-24T07:47:43.917Z,22.55
2019-01-24T07:50:12.516Z,26.93
2019-01-24T07:52:42.674Z,24.12
2019-01-24T07:55:11.587Z,25.35
2019-01-24T07:57:40.324Z,28.38
2019-01-24T08:00:25.858Z,28.42
2019-01-24T08:02:54.397Z,27.60
2019-01-24T08:05:23.703Z,25.77
2019-01-24T08:07:52.073Z,27.85
2019-01-24T08:10:20.848Z,26.52
2019-01-24T08:12:49.302Z,24.67
2019-01-24T08:15:19.058Z,26.30
2019-01-24T08:17:47.819Z,26.10
2019-01-24T08:20:19.145Z,25.45
2019-01-24T08:22:49.388Z,26.00
2019-01-24T08:25:17.912Z,30.57
2019-01-24T08:27:46.381Z,26.73
2019-01-24T08:30:18.246Z,26.95
2019-01-24T08:32:46.700Z,27.73
2019-01-24T08:35:15.208Z,26.57
2019-01-24T08:37:43.652Z,26.60
2019-01-24T08:40:13.397Z,30.43
2019-01-24T08:42:41.877Z,27.52
2019-01-24T08:45:10.911Z,27.60
2019-01-24T08:47:39.494Z,29.20
2019-01-24T08:50:11.840Z,28.85
2019-01-24T08:52:40.190Z,29.60
2019-01-24T08:55:33.721Z,28.62
2019-01-24T08:58:02.092Z,27.55
2019-01-24T09:00:32.297Z,29.50
2019-01-24T09:03:00.634Z,26.77
2019-01-24T09:05:29.029Z,27.70
2019-01-24T09:07:58.571Z,27.80
2019-01-24T09:10:32.969Z,28.45
2019-01-24T09:13:01.618Z,29.07
2019-01-24T09:15:30.122Z,31.80
2019-01-24T09:17:58.480Z,33.38
2019-01-24T09:20:26.850Z,30.70
2019-01-24T09:22:56.105Z,31.80
2019-01-24T09:25:24.556Z,32.70
2019-01-24T09:27:53.199Z,34.05
2019-01-24T09:30:23.876Z,34.85
2019-01-24T09:32:52.335Z,31.73
2019-01-24T09:35:21.445Z,34.40
2019-01-24T09:37:49.785Z,33.73
2019-01-24T09:40:18.315Z,34.60
2019-01-24T09:42:46.662Z,34.98
2019-01-24T09:45:23.535Z,35.20
2019-01-24T09:47:54.233Z,37.17
2019-01-24T09:50:23.536Z,35.65
2019-01-24T09:52:51.979Z,36.15
2019-01-24T09:55:20.380Z,38.35
2019-01-24T09:57:49.148Z,39.25
2019-01-24T10:00:30.090Z,35.10
2019-01-24T10:02:58.615Z,37.53
2019-01-24T10:05:28.011Z,37.30
2019-01-24T10:07:56.466Z,40.10
2019-01-24T10:10:25.296Z,37.95
2019-01-24T10:12:55.214Z,41.83
2019-01-24T10:15:24.341Z,39.30
2019-01-24T10:17:53.303Z,37.55
2019-01-24T10:20:24.930Z,40.30
2019-01-24T10:22:55.243Z,34.40
2019-01-24T10:25:32.217Z,38.00
2019-01-24T10:28:00.688Z,38.90
2019-01-24T10:30:29.188Z,38.48
2019-01-24T10:32:57.629Z,39.88
2019-01-24T10:35:26.277Z,36.93
2019-01-24T10:37:54.822Z,37.98
2019-01-24T10:40:27.442Z,38.33
2019-01-24T10:42:56.354Z,35.20
2019-01-24T10:45:28.020Z,36.35
2019-01-24T10:47:57.177Z,31.65
2019-01-24T10:50:26.436Z,28.90
2019-01-24T10:52:56.753Z,28.57
2019-01-24T10:55:27.208Z,30.17
2019-01-24T10:58:01.990Z,25.15
2019-01-24T11:00:34.613Z,32.25
2019-01-24T11:03:06.047Z,32.23
2019-01-24T11:05:34.420Z,33.85
2019-01-24T11:08:02.970Z,34.03
2019-01-24T11:10:31.735Z,30.85
2019-01-24T11:13:00.178Z,33.65
2019-01-24T11:15:29.961Z,33.45
2019-01-24T11:17:58.747Z,33.73
2019-01-24T11:20:27.395Z,32.90
2019-01-24T11:22:55.863Z,29.70
2019-01-24T11:25:25.980Z,29.35
2019-01-24T11:27:54.575Z,28.98
2019-01-24T11:30:25.606Z,26.37
2019-01-24T11:32:54.448Z,27.87
2019-01-24T11:35:26.355Z,27.27
2019-01-24T11:37:55.226Z,25.45
2019-01-24T11:40:23.685Z,26.93
2019-01-24T11:42:58.338Z,28.45
2019-01-24T11:45:33.911Z,28.75
2019-01-24T11:48:03.550Z,29.23
2019-01-24T11:50:33.423Z,30.82
2019-01-24T11:53:01.793Z,29.77
2019-01-24T11:55:30.510Z,29.40
2019-01-24T11:57:58.976Z,30.37
2019-01-24T12:00:38.393Z,31.73
2019-01-24T12:03:06.897Z,31.20
2019-01-24T12:05:35.694Z,32.45
2019-01-24T12:08:06.381Z,33.08
2019-01-24T12:10:35.481Z,30.55
2019-01-24T12:13:05.820Z,32.73
2019-01-24T12:15:34.437Z,30.43
2019-01-24T12:18:03.040Z,30.52
2019-01-24T12:20:31.698Z,30.82
2019-01-24T12:23:00.158Z,29.60
2019-01-24T12:25:28.607Z,29.05
2019-01-24T12:27:58.055Z,31.12
2019-01-24T12:30:31.340Z,27.98
2019-01-24T12:33:00.404Z,27.13
2019-01-24T12:35:29.499Z,31.07
2019-01-24T12:37:57.887Z,27.73
2019-01-24T12:40:26.705Z,28.87
2019-01-24T12:42:55.378Z,28.73
2019-01-24T12:45:27.207Z,26.97
2019-01-24T12:47:57.418Z,29.55
2019-01-24T12:50:26.166Z,30.30
2019-01-24T12:52:54.673Z,29.57
2019-01-24T12:55:23.416Z,28.55
2019-01-24T12:57:52.105Z,26.23
2019-01-24T13:00:31.967Z,28.50
2019-01-24T13:03:00.469Z,28.90
2019-01-24T13:05:29.359Z,30.27
2019-01-24T13:07:58.200Z,29.23
2019-01-24T13:10:27.149Z,29.18
2019-01-24T13:12:56.319Z,28.23
2019-01-24T13:15:27.595Z,28.65
2019-01-24T13:17:57.182Z,27.22
2019-01-24T13:20:25.550Z,30.48
2019-01-24T13:22:54.004Z,27.55
2019-01-24T13:25:28.667Z,27.87
2019-01-24T13:27:57.952Z,29.57
2019-01-24T13:30:29.226Z,29.45
2019-01-24T13:32:57.709Z,28.83
2019-01-24T13:35:26.230Z,31.80
2019-01-24T13:37:56.377Z,29.82
2019-01-24T13:40:27.945Z,29.48
2019-01-24T13:42:56.816Z,31.27
2019-01-24T13:45:31.567Z,32.65
2019-01-24T13:48:00.030Z,31.50
2019-01-24T13:50:28.495Z,33.48
2019-01-24T13:52:57.052Z,33.25
2019-01-24T13:55:25.445Z,30.08
2019-01-24T13:57:53.906Z,32.20
2019-01-24T14:00:33.266Z,31.97
2019-01-24T14:03:16.308Z,29.48
2019-01-24T14:05:44.913Z,31.12
2019-01-24T14:08:15.061Z,28.87
2019-01-24T14:10:43.429Z,29.35
2019-01-24T14:13:12.491Z,30.75
2019-01-24T14:15:41.612Z,31.48
2019-01-24T14:18:10.265Z,30.30
2019-01-24T14:20:38.725Z,29.23
2019-01-24T14:23:08.097Z,29.75
2019-01-24T14:25:36.610Z,28.20
2019-01-24T14:28:05.172Z,27.95
2019-01-24T14:30:35.350Z,27.42
2019-01-24T14:33:04.263Z,29.52
2019-01-24T14:35:33.203Z,26.68
2019-01-24T14:38:01.749Z,25.70
2019-01-24T14:40:30.100Z,26.57
2019-01-24T14:42:58.456Z,29.25
2019-01-24T14:45:27.349Z,27.70
2019-01-24T14:47:56.296Z,27.50
2019-01-24T14:50:25.943Z,30.65
2019-01-24T14:52:54.507Z,28.40
2019-01-24T14:55:23.120Z,28.98
2019-01-24T14:57:53.674Z,29.60
2019-01-24T15:00:34.157Z,29.23
2019-01-24T15:03:03.398Z,28.57
2019-01-24T15:05:32.100Z,29.80
2019-01-24T15:08:00.576Z,31.10
2019-01-24T15:10:29.133Z,28.87
2019-01-24T15:12:57.716Z,30.32
2019-01-24T15:15:26.668Z,27.15
2019-01-24T15:17:55.339Z,28.45
2019-01-24T15:20:25.570Z,32.40
2019-01-24T15:22:54.233Z,28.40
2019-01-24T15:25:24.130Z,26.57
2019-01-24T15:27:54.343Z,28.32
2019-01-24T15:30:23.952Z,26.10
2019-01-24T15:32:53.352Z,28.10
2019-01-24T15:35:22.476Z,26.33
2019-01-24T15:37:54.578Z,29.52
2019-01-24T15:40:25.112Z,26.12
2019-01-24T15:42:55.293Z,28.25
2019-01-24T15:45:24.310Z,25.80
2019-01-24T15:47:52.893Z,27.35
2019-01-24T15:50:21.768Z,25.70
2019-01-24T15:52:53.488Z,27.40
2019-01-24T15:55:22.209Z,27.20
2019-01-24T15:57:50.994Z,24.63
2019-01-24T16:00:28.568Z,26.45
2019-01-24T16:02:59.011Z,26.52
2019-01-24T16:05:29.655Z,27.87
2019-01-24T16:08:01.986Z,27.42
2019-01-24T16:10:28.998Z,28.15
2019-01-24T16:12:57.574Z,25.85
2019-01-24T16:15:32.108Z,26.65
2019-01-24T16:18:00.704Z,25.35
2019-01-24T16:20:29.985Z,27.42
2019-01-24T16:23:00.168Z,26.45
2019-01-24T16:25:30.907Z,28.38
2019-01-24T16:27:59.381Z,29.32
2019-01-24T16:30:30.132Z,32.98
2019-01-24T16:32:58.993Z,29.75
2019-01-24T16:35:28.083Z,33.45
2019-01-24T16:37:56.433Z,33.05
2019-01-24T16:40:26.205Z,31.10
2019-01-24T16:42:54.645Z,33.18
2019-01-24T16:45:25.970Z,31.75
2019-01-24T16:47:55.341Z,34.63
2019-01-24T16:50:25.456Z,31.07
2019-01-24T16:52:53.951Z,31.37
2019-01-24T16:55:23.223Z,34.35
2019-01-24T16:57:52.826Z,30.32
2019-01-24T17:00:36.475Z,31.70
2019-01-24T17:03:05.238Z,34.80
2019-01-24T17:05:33.707Z,33.85
2019-01-24T17:08:02.462Z,37.13
2019-01-24T17:10:32.639Z,35.60
2019-01-24T17:13:01.293Z,35.92
2019-01-24T17:15:29.875Z,35.35
2019-01-24T17:17:58.423Z,37.20
2019-01-24T17:20:27.139Z,35.98
2019-01-24T17:22:55.698Z,36.33
2019-01-24T17:25:25.895Z,37.73
2019-01-24T17:27:54.452Z,44.35
2019-01-24T17:30:25.405Z,41.63
2019-01-24T17:32:53.759Z,43.98
2019-01-24T17:35:22.437Z,41.63
2019-01-24T17:37:50.995Z,39.33
2019-01-24T17:40:23.052Z,38.40
2019-01-24T17:42:51.520Z,36.60
2019-01-24T17:45:20.037Z,39.27
2019-01-24T17:47:48.609Z,39.10
2019-01-24T17:50:17.365Z,35.38
2019-01-24T17:52:45.863Z,34.18
2019-01-24T17:55:39.501Z,38.25
2019-01-24T17:58:10.134Z,35.88
2019-01-24T18:00:51.321Z,33.30
2019-01-24T18:03:19.683Z,34.63
2019-01-24T18:05:48.369Z,34.05
2019-01-24T18:08:16.747Z,35.90
2019-01-24T18:10:45.149Z,35.92
2019-01-24T18:13:13.714Z,37.98
2019-01-24T18:15:43.036Z,38.10
2019-01-24T18:18:13.855Z,39.00
2019-01-24T18:20:44.300Z,40.17
2019-01-24T18:23:12.862Z,38.78
2019-01-24T18:25:41.277Z,36.63
2019-01-24T18:28:12.093Z,35.52
2019-01-24T18:30:42.474Z,35.90
2019-01-24T18:33:11.411Z,35.45
2019-01-24T18:35:41.908Z,25.08
2019-01-24T18:38:10.643Z,27.73
2019-01-24T18:40:39.513Z,27.90
2019-01-24T18:43:22.781Z,28.30
2019-01-24T18:45:54.018Z,26.05
2019-01-24T18:48:22.526Z,26.68
2019-01-24T18:50:51.319Z,26.27
2019-01-24T18:53:19.756Z,23.52
2019-01-24T18:55:48.288Z,23.50
2019-01-24T18:58:16.654Z,23.15
2019-01-24T19:00:46.363Z,24.00
2019-01-24T19:03:15.035Z,24.20
2019-01-24T19:05:44.722Z,27.07
2019-01-24T19:08:14.177Z,26.15
2019-01-24T19:10:43.225Z,27.37
2019-01-24T19:13:12.171Z,15.85
2019-01-24T19:15:43.805Z,14.43
2019-01-24T19:18:13.600Z,13.50
2019-01-24T19:20:42.183Z,12.78
2019-01-24T19:23:10.668Z,12.75
2019-01-24T19:25:39.654Z,11.30
2019-01-24T19:28:12.414Z,13.40
2019-01-24T19:30:42.575Z,12.00
2019-01-24T19:33:11.612Z,10.68
2019-01-24T19:35:40.555Z,12.15
2019-01-24T19:38:09.686Z,11.50
2019-01-24T19:40:38.138Z,10.95
2019-01-24T19:43:06.709Z,12.78
2019-01-24T19:45:35.641Z,10.80
2019-01-24T19:48:04.764Z,10.30
2019-01-24T19:50:33.145Z,9.43
2019-01-24T19:53:01.635Z,10.63
2019-01-24T19:55:30.101Z,10.15
2019-01-24T19:57:58.482Z,10.98
2019-01-24T20:00:31.131Z,11.48
2019-01-24T20:02:59.777Z,11.10
2019-01-24T20:05:28.639Z,10.13
2019-01-24T20:07:59.600Z,11.30
2019-01-24T20:10:28.751Z,12.07
2019-01-24T20:12:58.139Z,11.63
2019-01-24T20:15:29.118Z,10.35
2019-01-24T20:17:57.776Z,12.85
2019-01-24T20:20:26.542Z,13.18
2019-01-24T20:22:55.018Z,9.53
2019-01-24T20:25:28.951Z,10.00
2019-01-24T20:27:57.343Z,11.28
2019-01-24T20:30:29.359Z,12.07
2019-01-24T20:33:00.948Z,10.90
2019-01-24T20:35:51.576Z,10.95
2019-01-24T20:38:20.125Z,10.78
2019-01-24T20:40:49.022Z,9.00
2019-01-24T20:43:18.397Z,10.63
2019-01-24T20:45:47.152Z,9.50
2019-01-24T20:48:16.899Z,10.08
2019-01-24T20:50:45.899Z,10.78
2019-01-24T20:53:15.115Z,11.43
2019-01-24T20:55:45.750Z,11.15
2019-01-24T20:58:14.146Z,10.45
2019-01-24T21:00:44.590Z,10.08
2019-01-24T21:03:12.972Z,9.40
2019-01-24T21:05:42.069Z,10.28
2019-01-24T21:08:10.457Z,12.45
2019-01-24T21:10:39.416Z,10.20
2019-01-24T21:13:08.211Z,11.65
2019-01-24T21:15:37.485Z,10.13
2019-01-24T21:18:06.442Z,10.80
2019-01-24T21:20:36.308Z,11.57
2019-01-24T21:23:05.268Z,10.38
2019-01-24T21:25:33.786Z,11.55
2019-01-24T21:28:02.852Z,11.00
2019-01-24T21:30:34.114Z,11.10
2019-01-24T21:33:02.983Z,10.05
2019-01-24T21:35:31.793Z,11.33
2019-01-24T21:38:00.556Z,9.65
2019-01-24T21:40:29.119Z,11.05
2019-01-24T21:42:57.910Z,11.12
2019-01-24T21:45:32.239Z,9.95
2019-01-24T21:48:00.711Z,11.15
2019-01-24T21:50:31.080Z,10.15
2019-01-24T21:52:59.718Z,10.35
2019-01-24T21:55:28.353Z,9.98
2019-01-24T21:57:57.297Z,9.75
2019-01-24T22:00:30.300Z,11.12
2019-01-24T22:02:58.690Z,11.48
2019-01-24T22:05:28.839Z,12.70
2019-01-24T22:07:58.481Z,14.60
2019-01-24T22:10:27.951Z,14.45
2019-01-24T22:12:57.539Z,13.62
2019-01-24T22:15:27.781Z,17.85
2019-01-24T22:17:57.151Z,16.70
2019-01-24T22:20:25.724Z,17.10
2019-01-24T22:22:54.066Z,18.80
2019-01-24T22:25:33.788Z,19.92
2019-01-24T22:28:02.132Z,19.02
2019-01-24T22:30:48.715Z,19.70
2019-01-24T22:33:17.094Z,19.92
2019-01-24T22:35:45.618Z,19.52
2019-01-24T22:38:14.077Z,18.37
2019-01-24T22:40:42.435Z,16.87
2019-01-24T22:43:10.900Z,15.05
2019-01-24T22:45:39.752Z,16.70
2019-01-24T22:48:08.402Z,19.37
2019-01-24T22:50:36.897Z,19.17
2019-01-24T22:53:06.347Z,20.77
2019-01-24T22:55:34.902Z,21.15
2019-01-24T22:58:04.204Z,20.10
2019-01-24T23:01:07.875Z,18.15
2019-01-24T23:04:08.482Z,20.08
2019-01-24T23:06:36.936Z,21.80
2019-01-24T23:09:09.257Z,21.37
2019-01-24T23:11:37.729Z,21.93
2019-01-24T23:14:06.676Z,22.00
2019-01-24T23:16:35.264Z,21.82
2019-01-24T23:19:04.139Z,22.22
2019-01-24T23:21:34.288Z,20.20
2019-01-24T23:24:02.748Z,24.45
2019-01-24T23:26:31.127Z,23.87
2019-01-24T23:28:59.578Z,24.05
2019-01-24T23:31:28.045Z,25.40
2019-01-24T23:33:56.511Z,25.20
2019-01-24T23:36:25.164Z,27.02
2019-01-24T23:38:53.528Z,24.18
2019-01-24T23:41:22.195Z,25.45
2019-01-24T23:43:50.651Z,25.10
2019-01-24T23:46:19.178Z,25.25
2019-01-24T23:48:47.632Z,25.05
2019-01-24T23:51:16.314Z,26.75
2019-01-24T23:53:45.559Z,24.77
2019-01-24T23:56:14.129Z,23.67
2019-01-24T23:58:42.487Z,23.57
